createdAt,value
2023-03-22T00:01:23.398Z,10.88
2023-03-22T00:06:20.396Z,7.07
2023-03-22T00:11:18.042Z,6.88
2023-03-22T00:16:15.231Z,7.93
2023-03-22T00:21:13.751Z,11.00
2023-03-22T00:31:07.812Z,6.47
2023-03-22T00:36:07.434Z,10.50
2023-03-22T00:41:16.001Z,9.52
2023-03-22T00:46:14.510Z,9.80
2023-03-22T00:56:10.812Z,7.70
2023-03-22T01:01:07.410Z,5.83
2023-03-22T01:06:04.215Z,9.57
2023-03-22T01:11:01.287Z,7.65
2023-03-22T01:15:57.750Z,8.52
2023-03-22T01:20:54.197Z,7.30
2023-03-22T01:25:50.564Z,7.68
2023-03-22T01:30:47.005Z,9.82
2023-03-22T01:35:43.451Z,9.90
2023-03-22T01:40:40.656Z,8.68
2023-03-22T01:45:47.012Z,6.82
2023-03-22T01:50:49.559Z,9.45
2023-03-22T01:55:47.174Z,8.82
2023-03-22T02:00:45.197Z,10.60
2023-03-22T02:05:42.046Z,9.55
2023-03-22T02:10:38.869Z,7.30
2023-03-22T02:16:03.463Z,6.22
2023-03-22T02:21:21.081Z,8.05
2023-03-22T02:26:36.165Z,8.33
2023-03-22T02:32:06.220Z,8.60
2023-03-22T02:37:27.565Z,6.47
2023-03-22T02:42:32.782Z,6.97
2023-03-22T02:48:18.759Z,5.75
2023-03-22T02:53:24.559Z,8.30
2023-03-22T02:58:33.533Z,7.88
2023-03-22T03:03:32.724Z,6.60
2023-03-22T03:08:30.671Z,8.63
2023-03-22T03:13:27.165Z,6.22
2023-03-22T03:18:47.283Z,11.15
2023-03-22T03:23:54.992Z,7.80
2023-03-22T03:29:01.971Z,6.60
2023-03-22T03:34:11.444Z,7.00
2023-03-22T03:39:12.087Z,6.50
2023-03-22T03:44:09.358Z,8.18
2023-03-22T03:49:08.711Z,12.30
2023-03-22T03:54:05.061Z,10.38
2023-03-22T03:59:01.382Z,11.23
2023-03-22T04:03:57.748Z,9.70
2023-03-22T04:08:56.464Z,12.07
2023-03-22T04:13:52.818Z,10.35
2023-03-22T04:18:49.134Z,10.00
2023-03-22T04:23:46.778Z,9.48
2023-03-22T04:28:43.132Z,9.97
2023-03-22T04:33:40.474Z,8.63
2023-03-22T04:38:39.407Z,8.63
2023-03-22T04:43:39.270Z,9.52
2023-03-22T04:48:39.093Z,9.70
2023-03-22T04:53:38.884Z,10.55
2023-03-22T04:58:41.185Z,13.82
2023-03-22T05:03:38.060Z,11.35
2023-03-22T05:08:35.244Z,9.32
2023-03-22T05:13:31.583Z,9.98
2023-03-22T05:18:27.918Z,8.38
2023-03-22T05:23:24.684Z,7.68
2023-03-22T05:28:22.137Z,9.88
2023-03-22T05:33:24.409Z,12.23
2023-03-22T05:38:22.838Z,9.30
2023-03-22T05:43:19.692Z,7.80
2023-03-22T05:48:16.229Z,9.50
2023-03-22T05:53:12.696Z,9.73
2023-03-22T05:58:10.882Z,14.18
2023-03-22T06:03:08.158Z,13.05
2023-03-22T06:08:04.703Z,16.67
2023-03-22T06:13:01.382Z,9.95
2023-03-22T06:17:57.710Z,9.98
2023-03-22T06:22:54.013Z,11.73
2023-03-22T06:27:50.490Z,10.05
2023-03-22T06:32:47.126Z,9.45
2023-03-22T06:37:43.463Z,13.60
2023-03-22T06:42:40.224Z,9.27
2023-03-22T06:47:36.846Z,14.88
2023-03-22T06:52:33.184Z,7.90
2023-03-22T06:57:29.624Z,11.60
2023-03-22T07:02:25.997Z,9.90
2023-03-22T07:07:22.359Z,7.22
2023-03-22T07:12:18.714Z,11.32
2023-03-22T07:17:15.768Z,8.90
2023-03-22T07:22:12.098Z,8.38
2023-03-22T07:27:08.543Z,10.45
2023-03-22T07:32:05.466Z,8.00
2023-03-22T07:37:03.079Z,8.48
2023-03-22T07:41:59.507Z,7.87
2023-03-22T07:46:56.270Z,6.25
2023-03-22T07:51:52.797Z,9.00
2023-03-22T07:56:49.192Z,11.93
2023-03-22T08:01:45.573Z,7.25
2023-03-22T08:06:42.743Z,8.45
2023-03-22T08:11:39.090Z,11.55
2023-03-22T08:16:35.530Z,9.82
2023-03-22T08:21:33.322Z,9.20
2023-03-22T08:26:29.992Z,10.52
2023-03-22T08:31:26.628Z,8.55
2023-03-22T08:36:23.854Z,8.35
2023-03-22T08:41:20.427Z,7.10
2023-03-22T08:46:17.264Z,5.93
2023-03-22T08:51:13.937Z,5.53
2023-03-22T08:56:10.237Z,5.50
2023-03-22T09:01:06.667Z,5.32
2023-03-22T09:06:03.242Z,7.13
2023-03-22T09:10:59.877Z,6.95
2023-03-22T09:15:57.441Z,5.72
2023-03-22T09:20:53.807Z,5.60
2023-03-22T09:25:50.172Z,5.80
2023-03-22T09:30:46.593Z,5.47
2023-03-22T09:35:43.729Z,7.32
2023-03-22T09:40:51.355Z,12.40
2023-03-22T09:45:51.103Z,7.40
2023-03-22T09:50:51.602Z,7.68
2023-03-22T09:56:07.060Z,5.22
2023-03-22T10:01:11.954Z,6.25
2023-03-22T10:06:21.850Z,2.78
2023-03-22T10:11:25.205Z,8.13
2023-03-22T10:16:29.360Z,3.45
2023-03-22T10:21:26.641Z,5.85
2023-03-22T10:26:31.607Z,3.97
2023-03-22T10:31:28.668Z,5.03
2023-03-22T10:36:34.833Z,4.13
2023-03-22T10:41:33.587Z,8.30
2023-03-22T10:46:38.015Z,7.70
2023-03-22T10:51:41.135Z,5.25
2023-03-22T10:56:37.479Z,4.88
2023-03-22T11:01:41.450Z,8.18
2023-03-22T11:06:49.318Z,2.60
2023-03-22T11:11:51.559Z,6.30
2023-03-22T11:16:56.750Z,4.70
2023-03-22T11:21:54.987Z,4.95
2023-03-22T11:32:02.840Z,6.00
2023-03-22T11:37:00.808Z,4.90
2023-03-22T11:42:01.568Z,5.70
2023-03-22T11:47:01.037Z,3.03
2023-03-22T11:52:08.544Z,8.15
2023-03-22T11:57:09.261Z,4.93
2023-03-22T12:02:18.789Z,6.30
2023-03-22T12:07:19.365Z,6.85
2023-03-22T12:12:21.995Z,9.63
2023-03-22T12:17:36.082Z,3.17
2023-03-22T12:22:41.727Z,4.00
2023-03-22T12:27:42.614Z,4.15
2023-03-22T12:32:42.828Z,6.25
2023-03-22T12:37:42.372Z,5.35
2023-03-22T12:43:06.279Z,2.78
2023-03-22T12:48:16.041Z,4.85
2023-03-22T12:53:18.701Z,3.95
2023-03-22T12:58:23.720Z,3.45
2023-03-22T13:03:26.993Z,8.23
2023-03-22T13:08:23.534Z,5.63
2023-03-22T13:13:23.354Z,2.97
2023-03-22T13:18:56.756Z,4.40
2023-03-22T13:24:00.880Z,2.08
2023-03-22T13:28:59.449Z,1.95
2023-03-22T13:33:57.926Z,2.33
2023-03-22T13:38:57.755Z,5.28
2023-03-22T13:43:56.363Z,4.20
2023-03-22T13:49:02.052Z,3.50
2023-03-22T13:54:13.864Z,2.70
2023-03-22T13:59:27.335Z,3.65
2023-03-22T14:04:34.802Z,5.47
2023-03-22T14:09:34.488Z,1.97
2023-03-22T14:14:41.823Z,2.58
2023-03-22T14:19:38.589Z,2.87
